Airfield :
LOGIN :

Register | Disclaimer

   EN    FR    IT 

 










Legend :    VFR   Marginal VFR   IFR   Intensive IFR   Very Intensive IFR
Visi :
Ceiling :
>= 8 km
>= 3000ft
5 to 8 km
1000 to 3000 ft
1500m to 5 km
500 to 1000 ft
800 to 1500m
200 to 500 ft
< 800m
< 200 ft
Symbols :   Thunderstorms  Fog  Heavy snow  Heavy precipitations  Wind > 20 kt
SIGMETs :     Misc.  Thunderstorms  Icing  Turbulence  Mountain Waves  Volcanic Ashes






- Airport Elevation : 1470 ft
- IATA code : KLU


LOWK - Klagenfurt

CURRENT METAR :
  • 020820Z AUTO VRB02KT 9999 NSC 22/16 Q1014 NOSIG

EXPIRED METARs :
  • 020750Z AUTO VRB02KT 9999 NCD 21/16 Q1014
  • 020720Z AUTO 36003KT 300V080 9999 NCD 21/16 Q1014
  • 020650Z AUTO 36004KT 330V040 9999 FEW015 20/15 Q1014
  • 020620Z AUTO 35004KT 290V030 9999 NSC 20/15 Q1014
  • 020550Z AUTO 35003KT 310V050 9999 NSC 19/15 Q1014

TAF TAF LOWK
Valid from the 02 at 06:00 until the 03 at 06:00 UTC


020515Z 0206/0306 VRB04KT 9999 SCT040 BKN100 TX26/0213Z TN18/0304Z
TEMPO 0210/0306 SHRA BKN040 FEW050CB
TEMPO 0213/0217 VRB15G30KT TSRA
PROB40
TEMPO 0222/0304 4000 TSRA



MET'MAP, your aeronautical weather chart ! - Copyright ORBIFLY December 2007 - Disclaimer

ORBIFLY MET'MAP TEAM :

Programming & Development : Alexandra Zaïnal
Concept & original design : Baudouin d'Aumeries
Assistance for programming : Marc-Olivier Méhu
Technical & hardware support : Manuel Goepfert

Contact : metmap@orbifly.com




SOURCES & CREDITS :

   NOAA